CheckWX is a tool to help pilots better visualize weather data.  It is not intended as a substitute for an official pre-flight weather briefing.

13:35:49 UTC

X60 METAR
Williston Municipal Airport
Williston, Florida, USA
Current

21 mins ago

KX60 251315Z AUTO 04006KT 10SM BKN009 28/25 A2999 RMK AO2 LTG DSNT E T02780253
Observed
Aug-25 @ 13:15 UTC
Wind
  • 040° at 6 KTS
Visibility
10 SM
Flight Rules
IFR
Cloud Levels
  • Broken at 900' AGL
Temperature
28°C / 82°F
Dewpoint
25°C / 77°F
Heat Index
32°C / 90°F
Humidity
84%
Altimeter
29.99" Hg
Pressure
1015.62 hPa
Previous

41 mins ago

KX60 251255Z AUTO 06006KT 10SM SCT007 27/25 A2999 RMK AO2 T02670249
Observed
Aug-25 @ 12:55 UTC
Wind
  • 060° at 6 KTS
Visibility
10 SM
Flight Rules
VFR
Cloud Levels
  • Scattered at 700' AGL
Temperature
27°C / 81°F
Dewpoint
25°C / 77°F
Heat Index
31°C / 88°F
Humidity
89%
Altimeter
29.99" Hg
Pressure
1015.62 hPa
Previous

1 hour ago

KX60 251235Z AUTO 05003KT 10SM CLR 26/25 A2998 RMK AO2 T02600249
Observed
Aug-25 @ 12:35 UTC
Wind
  • 050° at 3 KTS
Visibility
10 SM
Flight Rules
VFR
Cloud Levels
  • Clear skies
Temperature
26°C / 79°F
Dewpoint
25°C / 77°F
Humidity
94%
Altimeter
29.98" Hg
Pressure
1015.22 hPa